Time;durP1;ratioP1;P1;durP2;ratioP2;P2;SDS_P1;SDS_P2;PMS_P1;PMS_P2;Temp;Humidity;BMP_temperature;BMP_pressure;BME280_temperature;BME280_humidity;BME280_pressure;Samples;Min_cycle;Max_cycle;Signal;HPM_P1;HPM_P2
2021/12/13 09:07:25;;;;;;;51.70;23.33;;;;;;;-1.42;90.38;100204.78;5060456;27;20402;-80
2021/12/13 09:09:50;;;;;;;51.10;22.60;;;;;;;-1.32;90.35;100199.41;5006600;28;20481;-79
2021/12/13 09:12:32;;;;;;;48.28;23.33;;;;;;;-1.24;89.80;100195.56;5026790;28;20034;-81
2021/12/13 09:14:59;;;;;;;52.47;24.25;;;;;;;-1.15;89.63;100203.66;5016983;28;20033;-79
2021/12/13 09:17:33;;;;;;;48.20;22.48;;;;;;;-1.04;89.55;100205.09;5027315;28;20069;-81
2021/12/13 09:20:25;;;;;;;49.85;23.75;;;;;;;-0.96;88.86;100199.50;5015858;28;20411;-82
2021/12/13 09:22:56;;;;;;;44.58;21.90;;;;;;;-0.93;88.24;100199.66;5048870;28;20059;-80
2021/12/13 09:25:32;;;;;;;45.85;22.15;;;;;;;-0.91;87.66;100196.41;5046291;28;20443;-79
2021/12/13 09:28:01;;;;;;;54.45;30.17;;;;;;;-0.84;87.85;100195.03;5048539;28;20123;-84
2021/12/13 09:30:27;;;;;;;44.90;23.23;;;;;;;-0.82;87.55;100190.91;5048512;28;20064;-80
2021/12/13 09:33:18;;;;;;;45.63;22.65;;;;;;;-0.83;87.69;100200.19;5031576;28;20072;-80
2021/12/13 09:36:01;;;;;;;44.53;21.42;;;;;;;-0.86;87.20;100184.78;5033002;28;20060;-79
2021/12/13 09:38:42;;;;;;;45.17;21.17;;;;;;;-0.77;87.30;100182.69;5015828;28;20550;-79
2021/12/13 09:41:33;;;;;;;42.65;21.33;;;;;;;-0.78;87.05;100180.03;5035756;28;20460;-79
2021/12/13 09:44:17;;;;;;;45.78;20.65;;;;;;;-0.72;87.17;100198.19;5033457;28;20556;-79
2021/12/13 09:46:48;;;;;;;41.67;21.00;;;;;;;-0.77;87.06;100182.69;5047881;28;20611;-79
2021/12/13 09:49:29;;;;;;;43.70;22.45;;;;;;;-0.69;87.29;100177.06;5015457;28;20037;-80
2021/12/13 09:52:06;;;;;;;47.78;23.63;;;;;;;-0.75;87.08;100170.00;5047733;28;20037;-79
2021/12/13 09:54:38;;;;;;;45.65;21.88;;;;;;;-0.71;86.99;100173.59;5032526;28;20040;-79
2021/12/13 09:57:12;;;;;;;47.85;23.42;;;;;;;-0.68;87.34;100166.97;5012829;28;20037;-79
2021/12/13 09:59:43;;;;;;;43.88;22.27;;;;;;;-0.62;87.57;100168.94;5046128;28;20076;-81
2021/12/13 10:02:20;;;;;;;47.53;21.85;;;;;;;-0.66;86.79;100175.56;5049327;28;20037;-84
2021/12/13 10:04:49;;;;;;;41.75;21.55;;;;;;;-0.64;87.20;100184.16;5031540;28;20045;-80
2021/12/13 10:07:27;;;;;;;44.08;22.20;;;;;;;-0.72;87.10;100188.00;5031652;28;20061;-83
2021/12/13 10:10:07;;;;;;;46.78;23.33;;;;;;;-0.84;87.00;100175.53;5014687;28;20128;-80
2021/12/13 10:12:41;;;;;;;41.80;22.60;;;;;;;-0.78;87.84;100187.69;5011388;28;20049;-79
2021/12/13 10:15:13;;;;;;;48.15;23.90;;;;;;;-0.81;87.62;100190.09;5002397;28;20048;-80
2021/12/13 10:17:43;;;;;;;43.47;21.20;;;;;;;-0.83;87.93;100190.00;5023433;28;20041;-79
2021/12/13 10:20:14;;;;;;;43.90;21.98;;;;;;;-0.81;88.21;100187.56;5034647;28;20086;-81
2021/12/13 10:22:40;;;;;;;40.25;21.33;;;;;;;-0.84;88.03;100175.53;5035497;28;20037;-78
2021/12/13 10:25:17;;;;;;;48.17;23.50;;;;;;;-0.75;88.77;100189.53;5018144;28;20044;-81
2021/12/13 10:27:42;;;;;;;42.33;20.65;;;;;;;-0.72;88.32;100187.13;5018708;28;20049;-80
2021/12/13 10:30:14;;;;;;;42.50;21.48;;;;;;;-0.73;88.62;100178.63;5017808;28;20508;-81
2021/12/13 10:32:40;;;;;;;43.40;22.15;;;;;;;-0.71;88.38;100168.50;5018101;28;20531;-80
2021/12/13 10:35:13;;;;;;;39.75;21.55;;;;;;;-0.66;88.62;100170.47;5017845;28;20060;-79
2021/12/13 10:37:42;;;;;;;45.15;22.88;;;;;;;-0.65;88.17;100173.88;5001937;28;20096;-79
2021/12/13 10:40:22;;;;;;;41.45;21.60;;;;;;;-0.69;88.43;100161.78;5017640;28;20029;-82
2021/12/13 10:42:51;;;;;;;46.50;21.30;;;;;;;-0.65;87.73;100177.28;5002090;28;20041;-80
2021/12/13 10:45:20;;;;;;;47.92;24.02;;;;;;;-0.67;88.05;100166.16;5017628;28;20091;-78
2021/12/13 10:47:49;;;;;;;55.53;30.55;;;;;;;-0.66;87.86;100173.00;5017734;28;20056;-80
2021/12/13 10:50:18;;;;;;;52.80;27.38;;;;;;;-0.67;88.65;100161.06;5033931;28;20404;-79
2021/12/13 10:52:51;;;;;;;48.80;25.48;;;;;;;-0.60;88.23;100165.66;5041644;28;20504;-81
2021/12/13 10:55:37;;;;;;;45.05;23.70;;;;;;;-0.64;88.24;100160.34;5022026;28;20041;-80
2021/12/13 10:58:03;;;;;;;41.47;22.90;;;;;;;-0.61;88.33;100161.38;5002463;28;20048;-79
2021/12/13 11:00:34;;;;;;;;;;;;;;;-0.61;88.35;100151.16;5001313;28;20670;-83
2021/12/13 11:03:22;;;;;;;42.42;22.63;;;;;;;-0.58;88.61;100148.78;5033718;28;20336;-80
2021/12/13 11:05:50;;;;;;;48.00;25.50;;;;;;;-0.59;88.65;100143.63;5016394;28;20135;-84
2021/12/13 11:08:16;;;;;;;42.28;21.80;;;;;;;-0.61;88.66;100138.44;5001294;28;20049;-80
2021/12/13 11:10:57;;;;;;;43.63;22.00;;;;;;;-0.54;88.57;100143.03;5016040;28;20046;-81
2021/12/13 11:13:26;;;;;;;38.13;20.50;;;;;;;-0.60;88.68;100127.44;5033706;28;20046;-79
2021/12/13 11:15:54;;;;;;;37.10;20.25;;;;;;;-0.56;88.46;100138.66;5017040;28;20052;-78
2021/12/13 11:18:27;;;;;;;37.00;20.35;;;;;;;-0.51;88.77;100138.06;5016746;28;20049;-80
2021/12/13 11:21:14;;;;;;;37.13;18.60;;;;;;;-0.54;88.47;100140.47;5017292;28;20078;-81
2021/12/13 11:23:40;;;;;;;33.97;17.40;;;;;;;-0.55;88.02;100126.00;5030591;28;20569;-80
2021/12/13 11:26:08;;;;;;;34.78;18.20;;;;;;;-0.56;88.43;100121.69;5032969;28;20029;-81
2021/12/13 11:28:35;;;;;;;31.40;17.50;;;;;;;-0.57;88.18;100117.41;5029895;28;20045;-80
2021/12/13 11:31:08;;;;;;;32.13;17.58;;;;;;;-0.58;87.88;100123.28;5010065;28;20511;-81
2021/12/13 11:33:37;;;;;;;33.40;17.35;;;;;;;-0.60;88.01;100124.88;5019186;28;20044;-81
2021/12/13 11:36:06;;;;;;;32.42;17.73;;;;;;;-0.59;87.77;100134.28;5033278;28;20098;-80
2021/12/13 11:39:06;;;;;;;37.70;17.88;;;;;;;-0.59;87.91;100123.22;5016605;28;20053;-80
2021/12/13 11:41:35;;;;;;;31.98;16.95;;;;;;;-0.60;87.85;100124.88;5006910;28;20593;-82
2021/12/13 11:44:40;;;;;;;33.08;16.08;;;;;;;-0.60;87.74;100122.34;5048168;28;20091;-80
2021/12/13 11:47:44;;;;;;;57.65;33.30;;;;;;;-0.66;87.55;100121.19;5017094;28;20183;-79
2021/12/13 11:50:49;;;;;;;33.28;17.38;;;;;;;-0.59;87.91;100120.69;4948879;28;20093;-79
2021/12/13 11:53:53;;;;;;;28.42;16.73;;;;;;;-0.58;87.54;100117.34;5016103;28;20550;-81
2021/12/13 11:56:41;;;;;;;33.60;18.08;;;;;;;-0.55;87.87;100115.81;5030633;28;20065;-81
2021/12/13 11:59:33;;;;;;;33.75;17.42;;;;;;;-0.59;87.69;100111.38;5034518;28;20492;-80
2021/12/13 12:02:01;;;;;;;34.78;18.15;;;;;;;-0.56;87.41;100119.13;5016046;28;20408;-80
2021/12/13 12:05:05;;;;;;;34.17;18.05;;;;;;;-0.64;87.30;100120.47;5032302;28;20040;-79
2021/12/13 12:08:03;;;;;;;36.92;18.02;;;;;;;-0.69;87.33;100119.34;5032277;28;20052;-83
2021/12/13 12:10:57;;;;;;;34.30;18.38;;;;;;;-0.66;87.48;100129.69;5032277;28;20483;-80
2021/12/13 12:13:32;;;;;;;41.85;18.92;;;;;;;-0.70;87.36;100129.47;5032142;28;20420;-79
2021/12/13 12:16:02;;;;;;;41.45;19.83;;;;;;;-0.71;87.35;100130.28;5033397;28;20116;-78
2021/12/13 12:18:29;;;;;;;38.65;19.38;;;;;;;-0.73;87.50;100125.13;5003892;28;20077;-81
2021/12/13 12:21:32;;;;;;;36.10;19.08;;;;;;;-0.73;87.86;100130.22;5041873;28;20041;-80
2021/12/13 12:24:00;;;;;;;35.60;17.85;;;;;;;-0.74;87.89;100127.56;5032133;28;20127;-80
2021/12/13 12:26:26;;;;;;;38.30;19.77;;;;;;;-0.82;87.64;100124.69;5015750;28;20400;-80
2021/12/13 12:28:58;;;;;;;38.50;19.88;;;;;;;-0.76;87.97;100137.69;5015648;28;20478;-81
2021/12/13 12:31:29;;;;;;;32.95;17.33;;;;;;;-0.76;87.78;100140.25;4999752;28;20060;-79
2021/12/13 12:33:56;;;;;;;50.58;24.55;;;;;;;-0.75;88.21;100147.09;4999028;28;20452;-79
2021/12/13 12:36:23;;;;;;;39.95;21.38;;;;;;;-0.73;88.29;100142.06;4998985;28;20048;-80
2021/12/13 12:39:04;;;;;;;38.40;19.60;;;;;;;-0.74;88.09;100153.91;4999412;28;20129;-79
2021/12/13 12:41:45;;;;;;;35.25;18.67;;;;;;;-0.77;88.01;100163.97;5048150;28;20049;-80
2021/12/13 12:44:27;;;;;;;37.42;18.30;;;;;;;-0.74;88.48;100159.00;5048532;28;20049;-81
2021/12/13 12:46:53;;;;;;;34.75;17.30;;;;;;;-0.71;88.95;100161.72;5011362;28;20563;-80
2021/12/13 12:49:22;;;;;;;36.45;18.08;;;;;;;-0.76;88.36;100155.53;5033419;28;20068;-79
2021/12/13 12:51:49;;;;;;;38.53;18.88;;;;;;;-0.73;88.61;100150.59;4995627;28;20029;-79
2021/12/13 12:54:18;;;;;;;38.10;18.20;;;;;;;-0.70;88.45;100155.81;4999205;28;20528;-79
2021/12/13 12:56:58;;;;;;;34.38;17.88;;;;;;;-0.72;88.63;100152.34;5031647;28;20497;-79
2021/12/13 12:59:31;;;;;;;36.25;17.90;;;;;;;-0.73;88.88;100145.50;5028566;28;20143;-79
2021/12/13 13:02:05;;;;;;;36.92;19.00;;;;;;;-0.69;88.42;100152.47;5031400;28;20500;-80
2021/12/13 13:04:42;;;;;;;38.30;18.58;;;;;;;-0.72;88.79;100167.63;4996461;28;20103;-82
2021/12/13 13:07:21;;;;;;;;;;;;;;;-0.73;88.68;100163.34;5019653;28;20077;-81
2021/12/13 13:13:02;;;;;;;38.05;19.15;;;;;;;-0.74;88.74;100158.16;5015291;28;20135;-80
2021/12/13 13:15:30;;;;;;;39.58;19.52;;;;;;;-0.73;88.95;100155.69;5014907;28;20033;-79
2021/12/13 13:18:10;;;;;;;36.25;18.70;;;;;;;-0.71;88.69;100159.19;4995424;28;20497;-81
2021/12/13 13:21:04;;;;;;;33.60;17.33;;;;;;;-0.73;88.69;100159.88;5028688;28;20061;-81
2021/12/13 13:23:39;;;;;;;35.13;17.13;;;;;;;-0.72;89.05;100157.44;5015588;28;20408;-79
2021/12/13 13:26:05;;;;;;;34.75;18.77;;;;;;;-0.71;89.16;100159.19;5031272;28;20045;-81
2021/12/13 13:28:34;;;;;;;32.90;17.98;;;;;;;-0.71;88.94;100153.22;4979186;28;20030;-80
2021/12/13 13:31:28;;;;;;;35.45;17.85;;;;;;;-0.73;88.72;100158.25;5033752;28;20041;-79
2021/12/13 13:34:06;;;;;;;38.63;18.50;;;;;;;-0.80;88.62;100146.00;5033499;28;20057;-80
2021/12/13 13:36:47;;;;;;;36.33;17.85;;;;;;;-0.77;88.81;100143.59;5031159;28;20064;-79
2021/12/13 13:39:28;;;;;;;35.00;18.45;;;;;;;-0.72;89.43;100143.81;5015136;28;20135;-80
2021/12/13 13:42:08;;;;;;;36.88;18.20;;;;;;;-0.76;89.24;100142.78;5000490;28;20045;-80
2021/12/13 13:45:02;;;;;;;37.70;17.73;;;;;;;-0.78;89.32;100136.72;5026859;28;20420;-80
2021/12/13 13:47:29;;;;;;;36.03;18.80;;;;;;;-0.79;88.81;100129.91;5028489;28;20052;-79
2021/12/13 13:49:56;;;;;;;33.38;17.25;;;;;;;-0.74;89.12;100128.44;5031127;28;20040;-78
2021/12/13 13:52:28;;;;;;;35.55;18.25;;;;;;;-0.74;89.53;100122.47;5012142;28;20390;-80
2021/12/13 13:54:59;;;;;;;36.88;18.77;;;;;;;-0.71;89.43;100127.72;5034361;28;20124;-84
2021/12/13 13:57:27;;;;;;;38.17;19.40;;;;;;;-0.75;89.33;100120.75;5008425;28;20507;-83
2021/12/13 13:59:54;;;;;;;39.85;18.90;;;;;;;-0.69;89.33;100136.31;5017949;28;20050;-80
2021/12/13 14:02:27;;;;;;;32.38;18.10;;;;;;;-0.73;89.36;100129.31;5031606;28;20400;-79
2021/12/13 14:04:59;;;;;;;38.30;18.60;;;;;;;-0.67;89.12;100130.50;5034433;28;20085;-80
2021/12/13 14:07:26;;;;;;;31.92;17.70;;;;;;;-0.71;89.39;100118.41;5023034;28;20575;-80
2021/12/13 14:09:52;;;;;;;35.30;18.23;;;;;;;-0.68;89.38;100113.47;5001930;28;20049;-80
2021/12/13 14:12:26;;;;;;;36.03;18.75;;;;;;;-0.67;89.42;100124.53;5018528;28;20132;-80
2021/12/13 14:14:54;;;;;;;36.72;18.85;;;;;;;-0.70;89.18;100125.25;5018727;28;20041;-80
2021/12/13 14:17:41;;;;;;;36.55;19.50;;;;;;;-0.72;89.22;100126.00;4999103;28;20560;-84
2021/12/13 14:20:16;;;;;;;;;;;;;;;-0.73;89.28;100130.22;5033997;28;20045;-81
2021/12/13 14:22:42;;;;;;;40.88;18.73;;;;;;;-0.72;89.61;100120.91;5034507;28;19916;-79
2021/12/13 14:25:08;;;;;;;33.40;19.48;;;;;;;-0.78;89.42;100121.44;5027378;28;20040;-80
2021/12/13 14:27:34;;;;;;;37.88;20.20;;;;;;;-0.77;89.31;100128.31;5014725;28;20044;-79
2021/12/13 14:30:29;;;;;;;42.58;20.42;;;;;;;-0.76;89.35;100127.50;5014654;28;20033;-80
2021/12/13 14:32:55;;;;;;;36.58;18.65;;;;;;;-0.78;89.33;100122.34;5022417;28;20045;-80
2021/12/13 14:35:39;;;;;;;;;;;;;;;-0.75;89.30;100121.59;5018368;28;20111;-80
2021/12/13 14:38:07;;;;;;;35.13;18.92;;;;;;;-0.77;89.29;100125.78;5018296;28;19921;-79
2021/12/13 14:41:06;;;;;;;34.85;18.38;;;;;;;-0.74;89.16;100132.66;5018405;28;20040;-80
2021/12/13 14:43:41;;;;;;;37.63;19.70;;;;;;;-0.77;89.08;100130.88;4977171;28;20081;-81
2021/12/13 14:46:16;;;;;;;35.47;19.73;;;;;;;-0.75;88.49;100139.44;4998562;28;20496;-80
2021/12/13 14:48:42;;;;;;;32.90;19.08;;;;;;;-0.73;88.87;100142.06;5018144;28;20473;-80
2021/12/13 14:51:11;;;;;;;38.60;19.33;;;;;;;-0.80;88.70;100130.72;5017480;28;20041;-79
2021/12/13 14:53:38;;;;;;;44.45;22.52;;;;;;;-0.77;89.05;100126.66;4997871;28;20044;-79
2021/12/13 14:56:19;;;;;;;31.80;18.88;;;;;;;-0.71;88.70;100135.38;5015719;28;20454;-79
2021/12/13 14:58:51;;;;;;;38.28;21.40;;;;;;;-0.78;88.77;100137.63;4985294;28;20080;-79
2021/12/13 15:01:21;;;;;;;37.95;20.40;;;;;;;-0.79;88.42;100140.09;5007814;28;20505;-80
2021/12/13 15:03:56;;;;;;;43.97;22.77;;;;;;;-0.85;87.97;100127.94;5021361;28;20057;-79
2021/12/13 15:06:25;;;;;;;38.10;21.70;;;;;;;-0.81;88.23;100128.97;4997681;28;20493;-80
2021/12/13 15:08:54;;;;;;;42.25;23.80;;;;;;;-0.79;88.67;100135.00;5033501;28;20057;-79
2021/12/13 15:11:31;;;;;;;42.85;22.08;;;;;;;-0.88;87.72;100137.09;4981642;28;20041;-80
2021/12/13 15:14:05;;;;;;;39.05;21.27;;;;;;;-0.89;88.04;100137.91;5035530;28;20095;-79
2021/12/13 15:16:35;;;;;;;34.50;19.70;;;;;;;-0.84;88.22;100144.09;5027330;28;20516;-78
2021/12/13 15:19:05;;;;;;;42.72;21.73;;;;;;;-0.84;88.59;100132.22;5016786;28;20037;-79
2021/12/13 15:21:36;;;;;;;41.88;23.88;;;;;;;-0.92;87.72;100132.66;5001584;28;20029;-83
2021/12/13 15:24:02;;;;;;;37.35;19.33;;;;;;;-0.82;88.11;100139.97;5016939;28;20052;-78
2021/12/13 15:26:36;;;;;;;38.90;20.73;;;;;;;-0.85;87.72;100137.25;5033313;28;20384;-81
2021/12/13 15:29:29;;;;;;;34.25;19.25;;;;;;;-0.75;87.65;100143.66;4997146;28;20037;-81
2021/12/13 15:32:04;;;;;;;39.97;19.05;;;;;;;-0.86;86.82;100141.47;5031052;28;20054;-81
2021/12/13 15:34:32;;;;;;;41.45;20.17;;;;;;;-0.94;86.61;100131.72;5000537;28;20044;-79
2021/12/13 15:36:58;;;;;;;34.22;18.48;;;;;;;-0.98;86.47;100128.13;4997255;28;20168;-79
2021/12/13 15:39:24;;;;;;;35.35;19.05;;;;;;;-0.85;87.05;100134.72;5016587;28;20073;-79
2021/12/13 15:41:53;;;;;;;36.50;19.67;;;;;;;-0.92;86.76;100130.09;5013285;28;20124;-79
2021/12/13 15:44:19;;;;;;;35.30;19.92;;;;;;;-0.91;86.35;100122.56;5034146;28;20188;-80
2021/12/13 15:46:50;;;;;;;35.08;19.00;;;;;;;-0.89;86.62;100126.03;4993137;28;20029;-82
2021/12/13 15:49:28;;;;;;;33.20;17.85;;;;;;;-0.96;85.66;100131.66;4984038;28;20165;-80
2021/12/13 15:52:18;;;;;;;33.47;16.90;;;;;;;-0.98;84.43;100129.81;5002430;28;20510;-80
2021/12/13 15:54:52;;;;;;;30.50;17.30;;;;;;;-0.99;84.86;100128.94;5002984;28;20072;-79
2021/12/13 15:57:22;;;;;;;34.35;18.23;;;;;;;-1.04;84.66;100128.72;5028249;28;20086;-79
2021/12/13 15:59:50;;;;;;;32.85;17.98;;;;;;;-0.98;84.47;100133.22;5012626;28;20046;-80
2021/12/13 16:02:25;;;;;;;29.08;16.05;;;;;;;-0.98;84.23;100122.16;5012738;28;20131;-79
2021/12/13 16:04:53;;;;;;;28.67;16.42;;;;;;;-0.98;84.05;100122.16;5013535;28;20034;-79
2021/12/13 16:07:19;;;;;;;31.35;16.45;;;;;;;-1.00;84.12;100113.59;5024246;28;20450;-80
2021/12/13 16:09:49;;;;;;;33.03;18.05;;;;;;;-1.03;83.50;100115.16;5021334;28;20050;-85
2021/12/13 16:12:21;;;;;;;29.38;15.90;;;;;;;-1.00;83.70;100123.78;5025048;28;20037;-80
2021/12/13 16:14:50;;;;;;;31.48;16.55;;;;;;;-0.95;84.38;100122.31;5030576;28;20064;-80
2021/12/13 16:17:24;;;;;;;29.73;15.57;;;;;;;-0.91;84.03;100116.59;5012958;28;20040;-80
2021/12/13 16:19:54;;;;;;;29.35;15.43;;;;;;;-0.98;84.51;100112.84;5026866;28;20041;-81
2021/12/13 16:22:37;;;;;;;34.50;17.30;;;;;;;-0.97;84.24;100118.81;4999151;28;20045;-83
2021/12/13 16:25:06;;;;;;;38.38;17.92;;;;;;;-1.01;84.58;100107.59;4998018;28;20044;-80
2021/12/13 16:27:42;;;;;;;28.98;16.20;;;;;;;-0.95;84.92;100107.91;5023203;28;20054;-78
2021/12/13 16:30:08;;;;;;;27.48;15.88;;;;;;;-1.00;84.50;100095.78;5012350;28;20038;-81
2021/12/13 16:32:34;;;;;;;30.98;16.08;;;;;;;-0.94;84.67;100104.56;4994418;28;20041;-80
2021/12/13 16:35:00;;;;;;;34.78;15.05;;;;;;;-0.96;84.43;100095.09;5008602;28;20060;-79
2021/12/13 16:37:27;;;;;;;32.47;16.50;;;;;;;-0.94;84.36;100099.47;5008431;28;20117;-80
2021/12/13 16:39:52;;;;;;;28.95;14.95;;;;;;;-1.02;83.82;100093.13;5013107;28;20041;-84
2021/12/13 16:42:18;;;;;;;24.90;14.00;;;;;;;-1.05;83.70;100098.09;5022416;28;20036;-82
2021/12/13 16:44:45;;;;;;;26.23;14.38;;;;;;;-1.04;84.17;100103.25;4998463;28;20088;-82
2021/12/13 16:47:13;;;;;;;31.38;15.48;;;;;;;-1.09;83.56;100098.72;5019132;28;20036;-79
2021/12/13 16:49:40;;;;;;;27.70;16.00;;;;;;;-1.12;82.88;100113.84;5016437;28;20033;-80
2021/12/13 16:52:09;;;;;;;33.70;15.23;;;;;;;-1.21;82.72;100114.25;5016219;28;20503;-78
2021/12/13 16:54:37;;;;;;;28.63;15.80;;;;;;;-1.25;82.68;100104.72;5023888;28;20439;-78
2021/12/13 16:57:24;;;;;;;29.48;15.55;;;;;;;-1.31;82.89;100089.16;5008031;28;20029;-79
2021/12/13 16:59:53;;;;;;;34.85;17.52;;;;;;;-1.17;83.21;100102.56;5019975;28;20052;-80
2021/12/13 17:02:19;;;;;;;30.58;15.00;;;;;;;-1.13;83.00;100097.69;5016453;28;20041;-80
2021/12/13 17:04:50;;;;;;;31.13;16.73;;;;;;;-1.17;82.48;100102.56;4998236;28;20554;-80
2021/12/13 17:07:19;;;;;;;24.80;13.63;;;;;;;-1.23;82.60;100098.06;5007668;28;20073;-80
2021/12/13 17:09:55;;;;;;;28.88;14.82;;;;;;;-1.30;82.92;100084.13;4999523;28;20043;-79
2021/12/13 17:12:21;;;;;;;27.17;14.43;;;;;;;-1.23;84.01;100084.47;4998458;28;20476;-81
2021/12/13 17:14:56;;;;;;;27.52;14.43;;;;;;;-1.27;83.43;100087.66;5012564;28;20034;-80
2021/12/13 17:17:51;;;;;;;29.88;16.15;;;;;;;-1.26;83.59;100092.81;5009239;28;20041;-80
2021/12/13 17:20:22;;;;;;;31.50;16.27;;;;;;;-1.24;83.77;100091.19;5024926;28;20145;-80
2021/12/13 17:22:48;;;;;;;32.42;16.70;;;;;;;-1.32;83.45;100085.75;5029136;28;20050;-79
2021/12/13 17:25:13;;;;;;;29.33;16.65;;;;;;;-1.38;83.45;100079.44;4997526;28;20036;-80
2021/12/13 17:27:39;;;;;;;29.50;16.38;;;;;;;-1.33;83.87;100088.19;5007630;28;20124;-80
2021/12/13 17:30:17;;;;;;;31.60;16.60;;;;;;;-1.37;83.55;100086.31;5018001;28;20508;-80
2021/12/13 17:32:48;;;;;;;31.42;18.02;;;;;;;-1.36;84.00;100094.00;5031958;28;20042;-81
2021/12/13 17:35:14;;;;;;;33.70;16.55;;;;;;;-1.35;83.79;100088.13;5031971;28;20045;-81
2021/12/13 17:37:44;;;;;;;33.58;18.20;;;;;;;-1.34;84.36;100089.88;5034604;28;20545;-79
2021/12/13 17:40:26;;;;;;;34.00;18.02;;;;;;;-1.39;83.96;100082.81;5017047;28;20068;-80
2021/12/13 17:43:02;;;;;;;29.85;16.95;;;;;;;-1.39;84.04;100076.03;5012369;28;20041;-80
2021/12/13 17:45:44;;;;;;;36.22;18.08;;;;;;;-1.35;84.21;100077.06;5019072;28;20045;-81
2021/12/13 17:48:36;;;;;;;31.45;17.85;;;;;;;-1.35;84.31;100069.44;5025670;28;21331;-81
2021/12/13 17:51:05;;;;;;;30.92;16.80;;;;;;;-1.34;83.85;100076.28;5020659;28;20053;-80
2021/12/13 17:53:39;;;;;;;32.13;17.85;;;;;;;-1.35;83.84;100082.16;5035239;28;20038;-81
2021/12/13 17:56:24;;;;;;;37.60;19.17;;;;;;;-1.44;83.57;100077.47;5034261;28;20052;-81
2021/12/13 17:58:56;;;;;;;29.95;17.13;;;;;;;-1.45;83.89;100082.50;5025847;28;20042;-80
2021/12/13 18:01:40;;;;;;;39.10;18.35;;;;;;;-1.46;84.66;100079.09;5013543;28;20061;-79
2021/12/13 18:04:13;;;;;;;32.22;16.42;;;;;;;-1.40;84.35;100075.97;5019785;28;20044;-79
2021/12/13 18:06:45;;;;;;;36.22;17.50;;;;;;;-1.38;84.37;100079.44;5025183;28;20452;-80
2021/12/13 18:09:19;;;;;;;32.22;18.23;;;;;;;-1.36;84.27;100077.88;4993022;28;20381;-82
2021/12/13 18:12:03;;;;;;;32.55;17.48;;;;;;;-1.36;84.21;100080.41;5034520;28;20037;-80
2021/12/13 18:14:41;;;;;;;32.35;18.25;;;;;;;-1.41;83.86;100085.28;5031025;28;20041;-80
2021/12/13 18:17:16;;;;;;;29.50;16.63;;;;;;;-1.42;84.15;100088.63;5032366;28;20500;-82
2021/12/13 18:20:03;;;;;;;33.22;16.42;;;;;;;-1.43;84.01;100088.53;5032873;28;20118;-81
2021/12/13 18:22:41;;;;;;;;;;;;;;;-1.46;83.77;100090.94;5050580;28;20122;-81
2021/12/13 18:25:20;;;;;;;31.98;15.75;;;;;;;-1.48;83.96;100092.53;5050371;28;19917;-85
2021/12/13 18:27:57;;;;;;;33.88;18.67;;;;;;;-1.47;83.58;100109.53;5022989;28;20436;-81
2021/12/13 18:30:29;;;;;;;30.52;16.38;;;;;;;-1.46;83.67;100101.13;5006026;28;20543;-80
2021/12/13 18:33:00;;;;;;;31.48;16.67;;;;;;;-1.41;83.62;100104.75;5003139;28;20040;-80
2021/12/13 18:35:36;;;;;;;29.30;16.13;;;;;;;-1.43;83.55;100102.13;5035071;28;20037;-79
2021/12/13 18:38:04;;;;;;;29.58;16.63;;;;;;;-1.44;83.87;100094.44;5030498;28;20061;-80
2021/12/13 18:40:36;;;;;;;36.05;17.00;;;;;;;-1.48;83.27;100097.59;5000917;28;20021;-84
2021/12/13 18:43:12;;;;;;;31.25;16.02;;;;;;;-1.45;83.57;100093.56;5014098;28;20092;-81
2021/12/13 18:45:48;;;;;;;27.98;15.82;;;;;;;-1.54;83.73;100088.88;5017545;28;20036;-79
2021/12/13 18:48:20;;;;;;;33.15;16.52;;;;;;;-1.44;83.47;100102.06;5010915;28;20080;-85
2021/12/13 18:50:49;;;;;;;31.95;16.27;;;;;;;-1.47;83.33;100109.53;5019754;28;20460;-79
2021/12/13 18:53:23;;;;;;;29.55;16.20;;;;;;;-1.52;83.41;100085.53;5024012;28;20443;-81
2021/12/13 18:55:49;;;;;;;29.27;15.77;;;;;;;-1.43;83.48;100111.44;4995305;28;20489;-80
2021/12/13 18:58:21;;;;;;;33.47;16.13;;;;;;;-1.45;83.27;100097.78;5024904;28;20389;-80
2021/12/13 19:01:12;;;;;;;29.15;16.30;;;;;;;-1.44;83.42;100102.06;5015308;28;20044;-81
2021/12/13 19:03:51;;;;;;;29.45;15.90;;;;;;;-1.56;82.86;100092.13;5030370;28;20037;-80
2021/12/13 19:06:22;;;;;;;32.15;15.55;;;;;;;-1.55;82.84;100097.31;5027723;28;20044;-79
2021/12/13 19:08:53;;;;;;;31.35;16.38;;;;;;;-1.52;83.12;100103.34;5017741;28;20076;-80
2021/12/13 19:11:29;;;;;;;35.55;17.50;;;;;;;-1.51;83.49;100107.63;4998079;28;20050;-80
2021/12/13 19:14:09;;;;;;;28.50;15.90;;;;;;;-1.60;82.81;100103.84;5010289;28;20478;-79
2021/12/13 19:16:56;;;;;;;26.13;14.85;;;;;;;-1.57;83.13;100101.44;5015995;28;20381;-82
2021/12/13 19:19:28;;;;;;;25.23;15.23;;;;;;;-1.55;82.85;100104.94;5033470;28;20523;-80
2021/12/13 19:21:55;;;;;;;28.48;15.73;;;;;;;-1.65;82.48;100092.56;5034411;28;20045;-80
2021/12/13 19:24:48;;;;;;;26.30;15.95;;;;;;;-1.74;82.28;100084.44;5017116;28;20033;-81
2021/12/13 19:27:30;;;;;;;25.15;14.20;;;;;;;-1.65;83.06;100097.63;5033297;28;20049;-81
2021/12/13 19:29:56;;;;;;;29.17;16.75;;;;;;;-1.60;83.21;100103.84;5034202;28;20037;-79
2021/12/13 19:32:27;;;;;;;34.78;19.65;;;;;;;-1.71;82.48;100104.94;5033075;28;20078;-80
2021/12/13 19:34:59;;;;;;;29.85;16.00;;;;;;;-1.78;82.71;100100.34;5008236;28;20059;-79
2021/12/13 19:37:43;;;;;;;29.05;15.75;;;;;;;-1.83;82.60;100095.03;4989587;28;20150;-81
2021/12/13 19:40:29;;;;;;;29.83;16.02;;;;;;;-1.75;82.56;100097.06;4996944;28;20111;-80
2021/12/13 19:43:27;;;;;;;26.27;15.17;;;;;;;-1.72;83.30;100090.47;5038787;28;20045;-80
2021/12/13 19:45:55;;;;;;;31.60;16.50;;;;;;;-1.69;83.34;100093.19;5026096;28;20221;-80
2021/12/13 19:48:24;;;;;;;26.00;15.20;;;;;;;-1.68;83.14;100092.38;5032639;28;20037;-81
2021/12/13 19:51:00;;;;;;;29.13;15.65;;;;;;;-1.66;82.91;100090.78;5016422;28;20049;-80
2021/12/13 19:53:45;;;;;;;27.92;15.63;;;;;;;-1.70;82.71;100096.50;5001867;28;20037;-80
2021/12/13 19:56:20;;;;;;;28.55;15.57;;;;;;;-1.71;82.75;100083.72;5033529;28;20096;-79
2021/12/13 19:59:07;;;;;;;45.35;16.17;;;;;;;-1.68;83.24;100086.44;5032569;28;20128;-79
2021/12/13 20:01:38;;;;;;;;;;;;;;;-1.67;83.22;100078.88;5032880;28;20140;-78
2021/12/13 20:04:33;;;;;;;29.85;15.50;;;;;;;-1.65;82.84;100084.00;5031844;28;19916;-80
2021/12/13 20:07:17;;;;;;;26.25;14.57;;;;;;;-1.64;82.81;100091.75;5027850;28;20416;-80
2021/12/13 20:10:14;;;;;;;29.95;15.73;;;;;;;-1.65;82.69;100084.91;5048325;28;20053;-80
2021/12/13 20:12:48;;;;;;;;;;;;;;;-1.68;82.78;100094.94;4997877;28;20068;-80
2021/12/13 20:15:19;;;;;;;32.28;16.60;;;;;;;-1.70;83.08;100090.53;5017647;28;19920;-80
2021/12/13 20:17:48;;;;;;;24.60;15.05;;;;;;;-1.73;82.94;100080.22;5020671;28;20090;-80
2021/12/13 20:20:17;;;;;;;30.10;15.75;;;;;;;-1.74;82.86;100076.81;4983362;28;20042;-82
2021/12/13 20:22:44;;;;;;;29.33;16.45;;;;;;;-1.72;83.28;100072.66;5013338;28;20065;-81
2021/12/13 20:25:17;;;;;;;30.83;15.48;;;;;;;-1.72;83.16;100082.84;5014033;28;20111;-80
2021/12/13 20:28:04;;;;;;;25.75;15.00;;;;;;;-1.77;82.84;100078.31;5031431;28;20041;-79
2021/12/13 20:31:07;;;;;;;28.88;15.93;;;;;;;-1.74;83.12;100076.81;5018949;28;20042;-78
2021/12/13 20:33:47;;;;;;;29.48;16.20;;;;;;;-1.70;82.58;100071.06;5030560;28;20049;-80
2021/12/13 20:36:20;;;;;;;29.70;15.98;;;;;;;-1.60;82.70;100067.34;5014509;28;20033;-81
2021/12/13 20:38:55;;;;;;;26.83;14.65;;;;;;;-1.52;82.74;100072.81;5013556;28;20068;-81
2021/12/13 20:41:27;;;;;;;30.50;15.65;;;;;;;-1.48;82.61;100072.16;5004141;28;20396;-80
2021/12/13 20:43:57;;;;;;;30.33;17.00;;;;;;;-1.52;82.27;100071.13;5034425;28;20107;-80
2021/12/13 20:46:38;;;;;;;27.33;15.80;;;;;;;-1.51;82.03;100074.53;5019395;28;20029;-81
2021/12/13 20:49:08;;;;;;;27.02;14.93;;;;;;;-1.53;81.64;100069.38;5014572;28;20458;-81
2021/12/13 20:51:42;;;;;;;29.25;15.43;;;;;;;-1.54;81.80;100072.75;5031115;28;20112;-80
2021/12/13 20:54:09;;;;;;;26.75;15.23;;;;;;;-1.60;81.74;100057.19;5030903;28;20120;-79
2021/12/13 20:56:45;;;;;;;24.73;13.90;;;;;;;-1.56;81.90;100062.50;5030817;28;20124;-80